createdAt,value
2022-07-27T00:01:23.415Z,7.87
2022-07-27T00:04:30.084Z,6.75
2022-07-27T00:07:36.418Z,7.40
2022-07-27T00:10:42.368Z,11.97
2022-07-27T00:13:48.126Z,8.58
2022-07-27T00:16:54.271Z,7.40
2022-07-27T00:20:00.857Z,8.75
2022-07-27T00:23:06.807Z,20.88
2022-07-27T00:26:12.661Z,7.83
2022-07-27T00:29:19.336Z,10.28
2022-07-27T00:32:25.747Z,8.85
2022-07-27T00:35:32.023Z,11.00
2022-07-27T00:38:39.369Z,9.20
2022-07-27T00:41:45.235Z,7.90
2022-07-27T00:44:53.314Z,9.10
2022-07-27T00:47:59.737Z,7.22
2022-07-27T00:51:09.942Z,7.92
2022-07-27T00:54:16.445Z,10.18
2022-07-27T00:57:24.767Z,10.48
2022-07-27T01:00:31.447Z,9.38
2022-07-27T01:03:39.461Z,8.43
2022-07-27T01:06:45.811Z,7.85
2022-07-27T01:10:04.283Z,11.25
2022-07-27T01:13:12.678Z,10.90
2022-07-27T01:16:22.839Z,10.30
2022-07-27T01:19:30.008Z,16.07
2022-07-27T01:22:35.869Z,10.55
2022-07-27T01:25:43.572Z,10.78
2022-07-27T01:28:49.010Z,9.55
2022-07-27T01:31:55.898Z,8.93
2022-07-27T01:35:01.553Z,10.72
2022-07-27T01:38:08.449Z,9.65
2022-07-27T01:41:14.075Z,13.32
2022-07-27T01:44:20.656Z,12.53
2022-07-27T01:47:27.338Z,8.93
2022-07-27T01:50:34.425Z,10.30
2022-07-27T01:53:39.953Z,11.75
2022-07-27T01:56:47.042Z,9.48
2022-07-27T01:59:53.209Z,7.53
2022-07-27T02:03:00.705Z,7.00
2022-07-27T02:06:07.007Z,9.25
2022-07-27T02:09:13.968Z,10.68
2022-07-27T02:12:39.982Z,6.42
2022-07-27T02:15:45.887Z,8.18
2022-07-27T02:18:54.558Z,9.20
2022-07-27T02:22:01.561Z,8.40
2022-07-27T02:25:07.813Z,7.92
2022-07-27T02:28:14.085Z,7.60
2022-07-27T02:31:20.356Z,10.53
2022-07-27T02:34:26.506Z,13.83
2022-07-27T02:37:34.204Z,7.65
2022-07-27T02:40:42.936Z,7.60
2022-07-27T02:43:49.400Z,10.13
2022-07-27T02:46:59.440Z,17.20
2022-07-27T02:50:05.964Z,24.45
2022-07-27T02:53:13.487Z,35.73
2022-07-27T02:56:26.984Z,17.20
2022-07-27T02:59:30.022Z,34.43
2022-07-27T03:02:31.019Z,16.32
2022-07-27T03:05:30.929Z,24.12
2022-07-27T03:08:35.756Z,43.50
2022-07-27T03:11:43.127Z,55.45
2022-07-27T03:14:47.991Z,48.23
2022-07-27T03:17:53.733Z,41.53
2022-07-27T03:20:59.277Z,34.48
2022-07-27T03:24:05.615Z,26.25
2022-07-27T03:27:10.587Z,24.45
2022-07-27T03:30:19.086Z,23.35
2022-07-27T03:33:25.038Z,25.97
2022-07-27T03:36:30.703Z,11.85
2022-07-27T03:39:36.389Z,15.25
2022-07-27T03:42:43.134Z,10.85
2022-07-27T03:45:52.006Z,16.75
2022-07-27T03:48:59.598Z,14.78
2022-07-27T03:52:06.449Z,6.15
2022-07-27T03:55:12.398Z,7.20
2022-07-27T03:58:19.271Z,11.63
2022-07-27T04:01:19.449Z,11.43
2022-07-27T04:04:26.620Z,6.70
2022-07-27T04:07:32.511Z,11.40
2022-07-27T04:10:39.994Z,9.48
2022-07-27T04:13:46.475Z,6.17
2022-07-27T04:16:59.364Z,5.85
2022-07-27T04:20:00.990Z,6.58
2022-07-27T04:22:54.865Z,8.75
2022-07-27T04:26:02.435Z,6.40
2022-07-27T04:29:10.215Z,6.35
2022-07-27T04:32:15.414Z,8.58
2022-07-27T04:35:26.230Z,7.10
2022-07-27T04:38:30.700Z,10.80
2022-07-27T04:41:37.691Z,13.38
2022-07-27T04:44:47.300Z,15.10
2022-07-27T04:47:54.229Z,18.42
2022-07-27T04:51:01.849Z,17.42
2022-07-27T04:54:15.558Z,20.57
2022-07-27T04:57:22.176Z,21.37
2022-07-27T05:00:33.754Z,18.27
2022-07-27T05:03:42.195Z,11.30
2022-07-27T05:06:48.956Z,10.60
2022-07-27T05:09:55.706Z,12.07
2022-07-27T05:13:02.648Z,14.23
2022-07-27T05:16:19.360Z,12.03
2022-07-27T05:19:40.457Z,7.92
2022-07-27T05:22:39.831Z,7.42
2022-07-27T05:25:44.434Z,11.30
2022-07-27T05:28:54.931Z,11.15
2022-07-27T05:32:02.410Z,9.08
2022-07-27T05:35:14.260Z,9.43
2022-07-27T05:38:23.578Z,11.08
2022-07-27T05:41:36.357Z,8.18
2022-07-27T05:44:43.305Z,7.70
2022-07-27T05:47:54.312Z,9.63
2022-07-27T05:51:02.737Z,7.67
2022-07-27T05:54:10.564Z,7.67
2022-07-27T05:57:20.503Z,6.33
2022-07-27T06:00:32.585Z,10.40
2022-07-27T06:03:40.777Z,8.08
2022-07-27T06:07:09.249Z,10.00
2022-07-27T06:10:16.028Z,7.60
2022-07-27T06:13:28.268Z,9.08
2022-07-27T06:16:33.324Z,6.58
2022-07-27T06:19:40.834Z,7.05
2022-07-27T06:23:00.787Z,6.80
2022-07-27T06:26:07.346Z,6.92
2022-07-27T06:29:19.741Z,7.33
2022-07-27T06:32:27.893Z,5.47
2022-07-27T06:35:40.184Z,9.05
2022-07-27T06:38:50.893Z,6.85
2022-07-27T06:41:58.336Z,6.92
2022-07-27T06:45:06.095Z,6.45
2022-07-27T06:48:12.474Z,9.15
2022-07-27T06:51:21.012Z,6.40
2022-07-27T06:54:28.757Z,11.20
2022-07-27T06:57:35.834Z,5.83
2022-07-27T07:00:44.962Z,5.33
2022-07-27T07:03:55.755Z,6.87
2022-07-27T07:07:09.794Z,5.92
2022-07-27T07:10:21.688Z,5.83
2022-07-27T07:13:34.094Z,5.90
2022-07-27T07:16:40.279Z,6.55
2022-07-27T07:19:52.465Z,5.20
2022-07-27T07:22:59.129Z,5.65
2022-07-27T07:26:07.055Z,4.97
2022-07-27T07:29:13.190Z,6.67
2022-07-27T07:32:23.074Z,6.42
2022-07-27T07:35:30.078Z,4.28
2022-07-27T07:38:35.514Z,4.47
2022-07-27T07:41:43.428Z,5.45
2022-07-27T07:44:50.743Z,5.87
2022-07-27T07:48:02.696Z,5.22
2022-07-27T07:51:09.724Z,4.37
2022-07-27T07:54:17.957Z,4.17
2022-07-27T07:57:24.532Z,5.28
2022-07-27T08:00:34.198Z,4.75
2022-07-27T08:03:51.287Z,5.10
2022-07-27T08:06:59.468Z,4.53
2022-07-27T08:10:05.377Z,4.45
2022-07-27T08:13:19.545Z,4.10
2022-07-27T08:16:27.401Z,5.17
2022-07-27T08:19:40.078Z,5.87
2022-07-27T08:22:46.142Z,5.20
2022-07-27T08:25:53.224Z,4.17
2022-07-27T08:29:11.338Z,3.80
2022-07-27T08:32:12.934Z,5.25
2022-07-27T08:35:20.809Z,4.12
2022-07-27T08:38:29.748Z,4.97
2022-07-27T08:41:39.116Z,8.30
2022-07-27T08:44:48.486Z,4.50
2022-07-27T08:47:56.347Z,4.78
2022-07-27T08:51:07.584Z,4.20
2022-07-27T08:54:15.165Z,4.70
2022-07-27T08:57:26.522Z,5.97
2022-07-27T09:00:33.295Z,3.70
2022-07-27T09:03:40.863Z,5.03
2022-07-27T09:07:05.406Z,3.47
2022-07-27T09:10:14.809Z,4.75
2022-07-27T09:13:37.972Z,4.55
2022-07-27T09:17:45.804Z,4.47
2022-07-27T09:20:17.958Z,7.05
2022-07-27T09:23:21.091Z,4.70
2022-07-27T09:26:36.527Z,4.50
2022-07-27T09:29:41.687Z,3.95
2022-07-27T09:32:52.518Z,4.53
2022-07-27T09:35:55.103Z,4.72
2022-07-27T09:39:20.958Z,4.40
2022-07-27T09:43:05.586Z,3.90
2022-07-27T09:45:39.451Z,3.58
2022-07-27T09:48:35.808Z,3.72
2022-07-27T09:51:59.678Z,6.03
2022-07-27T09:55:01.878Z,4.90
2022-07-27T09:58:15.895Z,6.08
2022-07-27T10:01:21.043Z,5.22
2022-07-27T10:04:30.920Z,4.12
2022-07-27T10:07:36.659Z,4.42
2022-07-27T10:10:42.912Z,5.70
2022-07-27T10:13:49.977Z,6.30
2022-07-27T10:17:01.276Z,4.95
2022-07-27T10:20:11.008Z,3.62
2022-07-27T10:23:18.766Z,4.42
2022-07-27T10:26:40.696Z,5.53
2022-07-27T10:29:51.530Z,3.67
2022-07-27T10:32:59.926Z,6.72
2022-07-27T10:36:16.825Z,4.28
2022-07-27T10:39:18.127Z,4.30
2022-07-27T10:42:42.953Z,5.90
2022-07-27T10:46:01.944Z,4.42
2022-07-27T10:49:12.280Z,4.42
2022-07-27T10:52:19.184Z,4.55
2022-07-27T10:55:45.275Z,3.30
2022-07-27T10:58:59.237Z,4.00
2022-07-27T11:02:12.615Z,4.25
2022-07-27T11:08:37.589Z,4.22
2022-07-27T11:11:39.277Z,4.17
2022-07-27T11:14:46.656Z,3.00
2022-07-27T11:18:00.540Z,3.50
2022-07-27T11:21:04.706Z,4.33
2022-07-27T11:24:18.014Z,4.75
2022-07-27T11:27:26.671Z,2.47
2022-07-27T11:30:43.458Z,2.92
2022-07-27T11:33:51.294Z,5.67
2022-07-27T11:37:04.830Z,4.85
2022-07-27T11:40:53.688Z,3.60
2022-07-27T11:43:27.197Z,5.35
2022-07-27T11:46:52.637Z,73.30
2022-07-27T11:50:01.132Z,10.60
2022-07-27T11:53:13.800Z,5.65
2022-07-27T11:56:19.148Z,4.20
2022-07-27T11:59:34.833Z,5.55
2022-07-27T12:02:41.549Z,6.03
2022-07-27T12:05:52.031Z,3.17
2022-07-27T12:09:00.491Z,5.42
2022-07-27T12:12:17.249Z,3.87
2022-07-27T12:15:48.430Z,3.17
2022-07-27T12:18:39.677Z,3.70
2022-07-27T12:21:51.077Z,3.60
2022-07-27T12:25:00.420Z,3.67
2022-07-27T12:28:25.948Z,3.10
2022-07-27T12:31:33.035Z,4.67
2022-07-27T12:34:38.370Z,3.00
2022-07-27T12:37:48.365Z,5.10
2022-07-27T12:41:09.140Z,4.50
2022-07-27T12:44:25.814Z,3.45
2022-07-27T12:47:51.569Z,3.87
2022-07-27T12:51:17.570Z,6.35
2022-07-27T12:54:24.105Z,3.65
2022-07-27T12:57:53.934Z,3.20
2022-07-27T13:00:40.667Z,2.85
2022-07-27T13:03:47.980Z,3.25
2022-07-27T13:06:54.956Z,3.55
2022-07-27T13:10:04.453Z,3.15
2022-07-27T13:13:10.349Z,3.25
2022-07-27T13:16:18.212Z,4.72
2022-07-27T13:19:24.530Z,4.40
2022-07-27T13:22:31.492Z,3.92
2022-07-27T13:25:43.057Z,4.25
2022-07-27T13:28:46.401Z,4.62
2022-07-27T13:31:57.441Z,3.02
2022-07-27T13:35:05.156Z,5.72
2022-07-27T13:38:16.641Z,4.15
2022-07-27T13:41:26.360Z,3.33
2022-07-27T13:45:02.111Z,3.37
2022-07-27T13:47:47.533Z,3.30
2022-07-27T13:50:53.560Z,3.42
2022-07-27T13:54:00.538Z,4.50
2022-07-27T13:57:08.020Z,3.15
2022-07-27T14:00:14.703Z,3.62
2022-07-27T14:03:23.095Z,3.65
2022-07-27T14:06:25.601Z,3.52
2022-07-27T14:09:24.837Z,2.62
2022-07-27T14:12:19.354Z,3.22
2022-07-27T14:15:08.646Z,4.33
2022-07-27T14:18:01.336Z,2.85
2022-07-27T14:21:10.518Z,3.33
2022-07-27T14:24:17.231Z,3.47
2022-07-27T14:27:23.922Z,3.60
2022-07-27T14:30:28.749Z,3.08
2022-07-27T14:33:36.755Z,3.80
2022-07-27T14:36:41.130Z,4.50
2022-07-27T14:39:47.938Z,4.35
2022-07-27T14:42:59.817Z,3.27
2022-07-27T14:46:06.035Z,5.58
2022-07-27T14:49:15.120Z,7.20
2022-07-27T14:52:25.198Z,3.12
2022-07-27T14:55:30.700Z,3.27
2022-07-27T14:58:39.432Z,3.47
2022-07-27T15:01:47.664Z,4.75
2022-07-27T15:04:55.105Z,3.15
2022-07-27T15:08:06.838Z,5.37
2022-07-27T15:11:12.907Z,3.17
2022-07-27T15:14:19.013Z,2.80
2022-07-27T15:17:27.766Z,3.08
2022-07-27T15:20:33.978Z,4.22
2022-07-27T15:23:40.921Z,2.90
2022-07-27T15:26:46.383Z,3.05
2022-07-27T15:29:52.090Z,3.05
2022-07-27T15:32:57.435Z,4.72
2022-07-27T15:36:04.568Z,3.17
2022-07-27T15:39:12.840Z,3.52
2022-07-27T15:42:22.495Z,4.03
2022-07-27T15:45:30.923Z,2.87
2022-07-27T15:48:37.937Z,3.50
2022-07-27T15:51:46.765Z,3.70
2022-07-27T15:54:55.676Z,4.87
2022-07-27T15:58:03.965Z,8.75
2022-07-27T16:01:10.628Z,6.28
2022-07-27T16:04:21.139Z,4.15
2022-07-27T16:07:27.470Z,4.85
2022-07-27T16:10:36.617Z,3.80
2022-07-27T16:13:43.812Z,4.17
2022-07-27T16:16:52.221Z,3.37
2022-07-27T16:20:00.793Z,5.20
2022-07-27T16:23:14.420Z,6.58
2022-07-27T16:26:14.182Z,3.42
2022-07-27T16:29:23.049Z,3.70
2022-07-27T16:32:29.571Z,5.12
2022-07-27T16:35:35.101Z,5.60
2022-07-27T16:38:50.251Z,5.03
2022-07-27T16:41:54.336Z,4.15
2022-07-27T16:44:59.956Z,5.20
2022-07-27T16:48:06.339Z,5.20
2022-07-27T16:51:12.525Z,6.97
2022-07-27T16:54:20.628Z,7.42
2022-07-27T16:57:30.358Z,15.13
2022-07-27T17:00:38.923Z,4.92
2022-07-27T17:03:45.292Z,5.70
2022-07-27T17:06:52.050Z,6.28
2022-07-27T17:09:58.290Z,9.85
2022-07-27T17:13:05.175Z,6.45
2022-07-27T17:16:14.908Z,4.53
2022-07-27T17:19:22.696Z,6.67
2022-07-27T17:22:29.293Z,9.33
2022-07-27T17:25:34.532Z,6.58
2022-07-27T17:28:43.640Z,13.15
2022-07-27T17:31:51.569Z,16.30
2022-07-27T17:34:58.756Z,9.08
2022-07-27T17:38:07.603Z,29.27
2022-07-27T17:41:12.985Z,16.60
2022-07-27T17:44:19.538Z,16.40
2022-07-27T17:47:24.451Z,9.58
2022-07-27T17:50:31.053Z,7.70
2022-07-27T17:53:37.309Z,15.63
2022-07-27T17:56:46.073Z,13.13
2022-07-27T17:59:51.366Z,14.83
2022-07-27T18:02:57.816Z,14.50
2022-07-27T18:06:05.533Z,14.05
2022-07-27T18:09:11.594Z,13.72
2022-07-27T18:12:19.864Z,16.48
2022-07-27T18:15:31.814Z,27.75
2022-07-27T18:18:39.948Z,23.07
2022-07-27T18:21:46.686Z,20.62
2022-07-27T18:24:52.860Z,28.23
2022-07-27T18:28:01.236Z,43.83
2022-07-27T18:31:10.373Z,33.40
2022-07-27T18:34:16.944Z,40.40
2022-07-27T18:37:24.117Z,50.43
2022-07-27T18:40:32.514Z,49.10
2022-07-27T18:43:37.691Z,50.83
2022-07-27T18:46:43.304Z,54.15
2022-07-27T18:49:50.588Z,56.20
2022-07-27T18:52:56.705Z,48.52
2022-07-27T18:56:04.249Z,44.33
2022-07-27T18:59:11.104Z,46.48
2022-07-27T19:02:19.233Z,51.10
2022-07-27T19:05:40.660Z,46.30
2022-07-27T19:08:34.115Z,48.23
2022-07-27T19:11:41.072Z,49.00
2022-07-27T19:14:50.301Z,56.33
2022-07-27T19:17:56.062Z,53.92
2022-07-27T19:21:02.512Z,45.80
2022-07-27T19:24:08.107Z,49.80
2022-07-27T19:27:18.552Z,43.02
2022-07-27T19:30:27.770Z,38.00
2022-07-27T19:33:36.006Z,43.13
2022-07-27T19:36:43.934Z,38.20
2022-07-27T19:39:58.505Z,36.33
2022-07-27T19:43:00.838Z,29.80
2022-07-27T19:46:10.631Z,34.55
2022-07-27T19:49:18.436Z,30.90
2022-07-27T19:52:25.161Z,31.45
2022-07-27T19:55:31.017Z,24.67
2022-07-27T19:58:39.031Z,23.60
2022-07-27T20:01:46.701Z,14.35
2022-07-27T20:04:53.497Z,16.87
2022-07-27T20:08:00.397Z,21.97
2022-07-27T20:11:07.168Z,16.73
2022-07-27T20:14:14.568Z,19.50
2022-07-27T20:17:22.166Z,15.25
2022-07-27T20:20:30.188Z,13.90
2022-07-27T20:23:38.180Z,13.78
2022-07-27T20:26:49.031Z,12.00
2022-07-27T20:29:54.305Z,9.28
2022-07-27T20:32:55.899Z,10.65
2022-07-27T20:36:00.803Z,13.35
2022-07-27T20:39:07.581Z,9.60
2022-07-27T20:42:14.455Z,12.65
2022-07-27T20:45:22.441Z,10.03
2022-07-27T20:48:28.942Z,10.00
2022-07-27T20:51:38.058Z,9.45
2022-07-27T20:54:44.986Z,11.00
2022-07-27T20:57:54.682Z,12.58
2022-07-27T21:01:01.509Z,12.28
2022-07-27T21:04:09.679Z,9.58
2022-07-27T21:07:18.691Z,10.20
2022-07-27T21:10:25.890Z,10.90
2022-07-27T21:13:31.734Z,12.43
2022-07-27T21:16:37.481Z,12.13
2022-07-27T21:19:45.496Z,11.03
2022-07-27T21:22:55.052Z,12.95
2022-07-27T21:26:04.382Z,14.55
2022-07-27T21:29:11.443Z,13.58
2022-07-27T21:32:18.973Z,14.70
2022-07-27T21:35:26.767Z,13.62
2022-07-27T21:38:32.929Z,15.70
2022-07-27T21:41:39.087Z,14.05
2022-07-27T21:44:44.237Z,13.05
2022-07-27T21:47:50.805Z,13.05
2022-07-27T21:50:57.582Z,11.40
2022-07-27T21:54:05.178Z,13.38
2022-07-27T21:57:12.681Z,23.00
2022-07-27T22:00:22.026Z,13.25
2022-07-27T22:03:27.568Z,10.40
2022-07-27T22:06:34.043Z,11.10
2022-07-27T22:09:44.282Z,9.13
2022-07-27T22:12:50.875Z,12.58
2022-07-27T22:15:58.193Z,10.85
2022-07-27T22:19:05.673Z,11.50
2022-07-27T22:22:12.644Z,10.08
2022-07-27T22:25:20.240Z,10.82
2022-07-27T22:28:27.125Z,8.98
2022-07-27T22:31:34.306Z,11.38
2022-07-27T22:34:40.779Z,10.65
2022-07-27T22:37:46.570Z,10.75
2022-07-27T22:40:52.796Z,9.65
2022-07-27T22:43:58.750Z,9.80
2022-07-27T22:47:05.317Z,14.98
2022-07-27T22:50:13.463Z,9.20
2022-07-27T22:53:18.585Z,9.18
2022-07-27T22:56:25.978Z,9.00
2022-07-27T22:59:32.971Z,9.43
2022-07-27T23:02:38.578Z,9.65
2022-07-27T23:05:45.339Z,10.98
2022-07-27T23:08:51.486Z,9.93
2022-07-27T23:11:56.699Z,7.97
2022-07-27T23:15:01.594Z,8.88
2022-07-27T23:18:08.094Z,10.98
2022-07-27T23:21:16.086Z,9.85
2022-07-27T23:24:29.365Z,8.93
2022-07-27T23:27:32.100Z,10.30
2022-07-27T23:30:38.996Z,8.20
2022-07-27T23:33:43.943Z,10.88
2022-07-27T23:36:51.018Z,9.05
2022-07-27T23:39:58.215Z,10.18
2022-07-27T23:43:04.708Z,9.40
2022-07-27T23:46:12.383Z,8.58
2022-07-27T23:49:19.504Z,9.15
2022-07-27T23:52:26.128Z,7.80
2022-07-27T23:55:32.360Z,9.10
2022-07-27T23:58:38.565Z,7.17
